createdAt,value
2022-11-22T00:01:23.702Z,125.87
2022-11-22T00:03:52.180Z,69.37
2022-11-22T00:06:21.106Z,49.43
2022-11-22T00:08:49.660Z,24.80
2022-11-22T00:11:19.578Z,35.80
2022-11-22T00:13:47.977Z,63.17
2022-11-22T00:16:18.590Z,41.97
2022-11-22T00:18:46.955Z,102.83
2022-11-22T00:21:15.384Z,34.57
2022-11-22T00:23:43.842Z,20.57
2022-11-22T00:26:17.400Z,18.50
2022-11-22T00:28:47.250Z,18.13
2022-11-22T00:31:15.652Z,16.87
2022-11-22T00:33:44.984Z,16.57
2022-11-22T00:36:13.419Z,16.30
2022-11-22T00:38:41.813Z,15.03
2022-11-22T00:41:10.722Z,14.43
2022-11-22T00:43:39.326Z,14.83
2022-11-22T00:46:09.244Z,15.00
2022-11-22T00:48:37.796Z,15.07
2022-11-22T00:51:06.247Z,14.43
2022-11-22T00:53:34.631Z,13.57
2022-11-22T00:56:03.167Z,14.00
2022-11-22T00:58:31.609Z,13.63
2022-11-22T01:01:00.298Z,13.50
2022-11-22T01:03:30.217Z,13.67
2022-11-22T01:05:58.757Z,14.30
2022-11-22T01:08:27.244Z,13.47
2022-11-22T01:10:59.408Z,12.33
2022-11-22T01:13:28.931Z,13.80
2022-11-22T01:16:01.526Z,14.50
2022-11-22T01:18:31.578Z,12.03
2022-11-22T01:21:00.231Z,14.30
2022-11-22T01:23:28.823Z,14.37
2022-11-22T01:25:57.370Z,13.50
2022-11-22T01:28:26.136Z,13.20
2022-11-22T01:30:55.583Z,13.97
2022-11-22T01:33:24.131Z,13.27
2022-11-22T01:35:54.448Z,13.77
2022-11-22T01:38:22.890Z,13.90
2022-11-22T01:40:51.416Z,14.83
2022-11-22T01:43:21.867Z,14.40
2022-11-22T01:45:55.472Z,14.57
2022-11-22T01:48:52.378Z,13.53
2022-11-22T01:51:27.678Z,13.03
2022-11-22T01:54:00.137Z,12.90
2022-11-22T01:56:30.689Z,14.13
2022-11-22T01:59:04.054Z,14.53
2022-11-22T02:01:33.404Z,16.20
2022-11-22T02:04:04.287Z,15.63
2022-11-22T02:06:40.272Z,14.80
2022-11-22T02:09:12.998Z,15.60
2022-11-22T02:11:47.974Z,15.47
2022-11-22T02:14:18.390Z,15.77
2022-11-22T02:16:49.803Z,14.67
2022-11-22T02:19:24.819Z,14.17
2022-11-22T02:22:00.017Z,14.57
2022-11-22T02:24:34.540Z,14.13
2022-11-22T02:27:04.485Z,16.00
2022-11-22T02:29:33.777Z,16.03
2022-11-22T02:32:02.157Z,16.10
2022-11-22T02:34:30.659Z,13.73
2022-11-22T02:36:59.176Z,12.63
2022-11-22T02:39:31.075Z,13.97
2022-11-22T02:41:59.932Z,12.83
2022-11-22T02:44:29.810Z,13.73
2022-11-22T02:46:58.210Z,14.07
2022-11-22T02:49:27.200Z,16.30
2022-11-22T02:51:55.687Z,16.10
2022-11-22T02:54:24.195Z,16.60
2022-11-22T02:56:52.554Z,16.97
2022-11-22T02:59:21.067Z,15.83
2022-11-22T03:01:50.911Z,16.57
2022-11-22T03:04:25.962Z,15.87
2022-11-22T03:06:56.035Z,16.30
2022-11-22T03:09:25.072Z,16.20
2022-11-22T03:11:54.158Z,15.57
2022-11-22T03:14:22.578Z,16.83
2022-11-22T03:16:52.765Z,16.90
2022-11-22T03:19:21.318Z,14.43
2022-11-22T03:21:50.115Z,15.13
2022-11-22T03:24:20.428Z,16.40
2022-11-22T03:26:50.351Z,17.23
2022-11-22T03:29:19.595Z,16.10
2022-11-22T03:31:48.071Z,17.07
2022-11-22T03:34:18.517Z,15.87
2022-11-22T03:36:47.304Z,15.77
2022-11-22T03:39:15.694Z,17.20
2022-11-22T03:41:44.219Z,17.07
2022-11-22T03:44:12.717Z,17.03
2022-11-22T03:46:41.173Z,15.17
2022-11-22T03:49:09.646Z,17.10
2022-11-22T03:51:39.488Z,16.93
2022-11-22T03:54:07.990Z,16.30
2022-11-22T03:56:36.448Z,17.07
2022-11-22T03:59:04.928Z,17.03
2022-11-22T04:01:33.481Z,16.87
2022-11-22T04:04:01.975Z,17.07
2022-11-22T04:06:30.515Z,15.13
2022-11-22T04:09:00.467Z,17.77
2022-11-22T04:11:28.884Z,14.67
2022-11-22T04:14:14.999Z,17.30
2022-11-22T04:16:43.668Z,17.17
2022-11-22T04:19:12.812Z,18.73
2022-11-22T04:21:40.211Z,18.53
2022-11-22T04:24:29.597Z,16.90
2022-11-22T04:26:58.742Z,17.20
2022-11-22T04:29:27.347Z,18.70
2022-11-22T04:32:13.324Z,22.57
2022-11-22T04:34:41.670Z,17.43
2022-11-22T04:37:10.175Z,16.53
2022-11-22T04:39:40.025Z,15.60
2022-11-22T04:42:26.073Z,17.50
2022-11-22T04:44:54.465Z,18.10
2022-11-22T04:47:40.262Z,19.53
2022-11-22T04:50:30.794Z,17.63
2022-11-22T04:52:58.440Z,19.00
2022-11-22T04:55:28.258Z,18.23
2022-11-22T04:58:00.050Z,18.37
2022-11-22T05:00:29.471Z,18.30
2022-11-22T05:02:57.996Z,16.20
2022-11-22T05:05:27.213Z,13.40
2022-11-22T05:07:55.812Z,16.27
2022-11-22T05:10:26.787Z,16.90
2022-11-22T05:13:05.374Z,16.73
2022-11-22T05:15:33.740Z,17.77
2022-11-22T05:18:02.193Z,17.37
2022-11-22T05:20:30.608Z,18.20
2022-11-22T05:23:16.597Z,18.70
2022-11-22T05:25:45.067Z,18.90
2022-11-22T05:28:15.226Z,18.10
2022-11-22T05:30:43.803Z,18.73
2022-11-22T05:33:12.303Z,18.40
2022-11-22T05:35:40.760Z,19.17
2022-11-22T05:38:09.381Z,17.80
2022-11-22T05:40:37.929Z,17.20
2022-11-22T05:43:06.640Z,15.67
2022-11-22T05:45:36.567Z,15.50
2022-11-22T05:48:05.040Z,16.43
2022-11-22T05:50:33.526Z,16.97
2022-11-22T05:53:03.967Z,15.60
2022-11-22T05:55:33.343Z,20.27
2022-11-22T05:58:02.247Z,21.23
2022-11-22T06:00:31.276Z,19.03
2022-11-22T06:03:03.796Z,16.07
2022-11-22T06:05:32.595Z,18.73
2022-11-22T06:08:02.989Z,14.60
2022-11-22T06:10:31.471Z,15.70
2022-11-22T06:12:59.902Z,17.57
2022-11-22T06:15:28.369Z,17.77
2022-11-22T06:17:56.881Z,16.97
2022-11-22T06:20:26.829Z,17.37
2022-11-22T06:22:55.641Z,17.97
2022-11-22T06:25:24.436Z,17.23
2022-11-22T06:27:53.034Z,18.03
2022-11-22T06:30:22.013Z,17.97
2022-11-22T06:32:50.795Z,18.63
2022-11-22T06:35:19.240Z,19.80
2022-11-22T06:37:50.579Z,20.97
2022-11-22T06:40:19.288Z,19.23
2022-11-22T06:42:47.670Z,20.50
2022-11-22T06:45:16.525Z,20.43
2022-11-22T06:47:44.917Z,18.40
2022-11-22T06:50:17.397Z,20.37
2022-11-22T06:52:54.175Z,19.80
2022-11-22T06:55:49.085Z,19.90
2022-11-22T06:58:11.167Z,19.37
2022-11-22T07:00:39.583Z,18.63
2022-11-22T07:03:08.036Z,20.70
2022-11-22T07:05:36.454Z,18.77
2022-11-22T07:08:13.303Z,20.53
2022-11-22T07:10:42.192Z,20.50
2022-11-22T07:13:10.814Z,17.17
2022-11-22T07:15:40.158Z,18.03
2022-11-22T07:18:08.572Z,18.83
2022-11-22T07:20:37.618Z,19.80
2022-11-22T07:23:07.824Z,20.87
2022-11-22T07:25:36.204Z,19.47
2022-11-22T07:28:04.651Z,24.30
2022-11-22T07:30:32.986Z,22.63
2022-11-22T07:33:01.783Z,24.53
2022-11-22T07:35:30.591Z,21.83
2022-11-22T07:37:59.563Z,22.87
2022-11-22T07:40:29.590Z,21.30
2022-11-22T07:42:58.750Z,19.23
2022-11-22T07:45:28.036Z,20.17
2022-11-22T07:47:56.646Z,22.13
2022-11-22T07:50:25.685Z,21.63
2022-11-22T07:52:57.244Z,20.10
2022-11-22T07:55:27.115Z,21.03
2022-11-22T07:58:00.601Z,19.83
2022-11-22T08:00:29.576Z,18.10
2022-11-22T08:02:59.325Z,23.00
2022-11-22T08:05:28.216Z,23.00
2022-11-22T08:07:56.954Z,29.87
2022-11-22T08:10:25.405Z,23.30
2022-11-22T08:12:53.826Z,21.10
2022-11-22T08:15:23.707Z,20.10
2022-11-22T08:17:52.135Z,20.47
2022-11-22T08:20:20.638Z,20.07
2022-11-22T08:22:49.100Z,25.50
2022-11-22T08:25:17.840Z,20.73
2022-11-22T08:27:46.474Z,20.77
2022-11-22T08:30:14.911Z,25.57
2022-11-22T08:32:44.953Z,30.17
2022-11-22T08:35:13.555Z,20.23
2022-11-22T08:37:42.534Z,19.90
2022-11-22T08:40:11.920Z,19.97
2022-11-22T08:42:40.323Z,23.87
2022-11-22T08:45:09.637Z,24.80
2022-11-22T08:47:38.112Z,23.73
2022-11-22T08:50:09.261Z,21.17
2022-11-22T08:52:37.781Z,18.73
2022-11-22T08:55:07.521Z,21.87
2022-11-22T08:57:36.039Z,25.27
2022-11-22T09:00:05.448Z,23.17
2022-11-22T09:02:34.052Z,23.40
2022-11-22T09:05:02.424Z,23.83
2022-11-22T09:10:20.622Z,24.20
2022-11-22T09:12:49.846Z,24.43
2022-11-22T09:15:18.907Z,31.67
2022-11-22T09:17:47.274Z,25.67
2022-11-22T09:20:15.864Z,28.77
2022-11-22T09:22:45.858Z,23.40
2022-11-22T09:25:14.229Z,28.87
2022-11-22T09:27:43.058Z,24.83
2022-11-22T09:30:12.433Z,25.33
2022-11-22T09:32:40.831Z,30.73
2022-11-22T09:35:09.578Z,27.30
2022-11-22T09:37:38.031Z,26.57
2022-11-22T09:40:09.687Z,23.17
2022-11-22T09:42:49.152Z,25.17
2022-11-22T09:45:36.558Z,24.93
2022-11-22T09:48:19.082Z,22.43
2022-11-22T09:50:53.968Z,21.60
2022-11-22T09:53:27.956Z,21.00
2022-11-22T09:56:01.060Z,19.60
2022-11-22T09:58:33.689Z,19.63
2022-11-22T10:01:08.996Z,21.53
2022-11-22T10:03:46.969Z,21.30
2022-11-22T10:06:21.050Z,21.27
2022-11-22T10:08:59.754Z,22.30
2022-11-22T10:11:37.574Z,24.30
2022-11-22T10:14:14.546Z,20.40
2022-11-22T10:16:49.307Z,21.67
2022-11-22T10:19:23.387Z,21.27
2022-11-22T10:21:52.194Z,19.90
2022-11-22T10:24:20.742Z,20.60
2022-11-22T10:26:50.845Z,19.83
2022-11-22T10:29:28.936Z,20.10
2022-11-22T10:32:06.679Z,20.17
2022-11-22T10:34:49.778Z,18.73
2022-11-22T10:37:28.452Z,20.93
2022-11-22T10:40:09.011Z,21.43
2022-11-22T10:42:58.613Z,22.83
2022-11-22T10:45:32.593Z,21.47
2022-11-22T10:48:14.164Z,20.37
2022-11-22T10:50:57.069Z,23.67
2022-11-22T10:53:32.591Z,20.77
2022-11-22T10:56:09.600Z,27.50
2022-11-22T10:58:54.052Z,29.27
2022-11-22T11:01:33.956Z,24.13
2022-11-22T11:04:05.023Z,29.17
2022-11-22T11:07:04.633Z,24.53
2022-11-22T11:12:29.370Z,21.13
2022-11-22T11:15:04.560Z,20.80
2022-11-22T11:17:36.983Z,20.47
2022-11-22T11:20:12.579Z,23.77
2022-11-22T11:25:31.644Z,21.40
2022-11-22T11:28:05.493Z,22.60
2022-11-22T11:30:47.431Z,23.87
2022-11-22T11:33:26.684Z,22.63
2022-11-22T11:35:57.625Z,21.50
2022-11-22T11:38:30.643Z,28.83
2022-11-22T11:40:59.235Z,22.77
2022-11-22T11:43:27.671Z,22.17
2022-11-22T11:46:18.016Z,22.20
2022-11-22T11:48:46.827Z,23.33
2022-11-22T11:51:27.249Z,24.93
2022-11-22T11:54:00.341Z,25.03
2022-11-22T11:56:50.384Z,25.53
2022-11-22T11:59:20.964Z,22.33
2022-11-22T12:01:56.834Z,26.53
2022-11-22T12:04:28.915Z,24.70
2022-11-22T12:07:06.672Z,24.37
2022-11-22T12:09:38.235Z,23.30
2022-11-22T12:12:17.330Z,25.33
2022-11-22T12:15:10.631Z,23.90
2022-11-22T12:17:50.865Z,24.57
2022-11-22T12:20:24.806Z,23.73
2022-11-22T12:23:07.334Z,22.23
2022-11-22T12:25:38.641Z,25.03
2022-11-22T12:28:18.633Z,23.87
2022-11-22T12:30:54.476Z,27.57
2022-11-22T12:33:30.608Z,27.47
2022-11-22T12:35:59.791Z,23.90
2022-11-22T12:38:34.064Z,24.13
2022-11-22T12:41:06.508Z,23.67
2022-11-22T12:43:41.212Z,25.50
2022-11-22T12:46:14.713Z,24.67
2022-11-22T12:48:49.521Z,26.00
2022-11-22T12:51:24.673Z,26.37
2022-11-22T12:53:54.855Z,25.33
2022-11-22T12:56:33.350Z,26.33
2022-11-22T12:59:08.486Z,26.50
2022-11-22T13:01:47.296Z,26.20
2022-11-22T13:04:23.859Z,28.60
2022-11-22T13:06:57.143Z,26.40
2022-11-22T13:09:33.598Z,26.43
2022-11-22T13:12:07.478Z,30.33
2022-11-22T13:14:39.906Z,32.77
2022-11-22T13:17:09.615Z,34.73
2022-11-22T13:19:47.103Z,30.03
2022-11-22T13:22:22.453Z,29.97
2022-11-22T13:25:07.789Z,32.40
2022-11-22T13:27:38.736Z,28.43
2022-11-22T13:30:18.304Z,28.27
2022-11-22T13:32:50.873Z,26.70
2022-11-22T13:35:29.917Z,27.30
2022-11-22T13:38:01.374Z,26.70
2022-11-22T13:40:32.877Z,25.37
2022-11-22T13:43:48.639Z,26.00
2022-11-22T13:46:53.686Z,42.67
2022-11-22T13:49:45.105Z,40.80
2022-11-22T13:52:51.281Z,38.20
2022-11-22T13:55:40.215Z,26.23
2022-11-22T13:58:52.961Z,25.83
2022-11-22T14:02:03.606Z,25.60
2022-11-22T14:04:40.256Z,23.83
2022-11-22T14:07:35.008Z,22.73
2022-11-22T14:10:25.550Z,30.93
2022-11-22T14:13:09.854Z,28.40
2022-11-22T14:15:57.670Z,27.33
2022-11-22T14:18:47.158Z,28.87
2022-11-22T14:21:23.166Z,28.57
2022-11-22T14:24:29.393Z,28.50
2022-11-22T14:27:09.471Z,29.30
2022-11-22T14:30:14.079Z,41.13
2022-11-22T14:32:50.640Z,39.37
2022-11-22T14:35:29.551Z,33.37
2022-11-22T14:38:01.507Z,30.87
2022-11-22T14:40:36.911Z,33.47
2022-11-22T14:43:27.223Z,35.07
2022-11-22T14:46:00.988Z,32.03
2022-11-22T14:48:35.069Z,32.63
2022-11-22T14:51:09.477Z,33.57
2022-11-22T14:53:44.360Z,37.73
2022-11-22T14:56:18.882Z,42.03
2022-11-22T14:58:58.798Z,45.43
2022-11-22T15:01:56.856Z,52.60
2022-11-22T15:09:12.138Z,60.10
2022-11-22T15:09:13.964Z,47.20
2022-11-22T15:11:26.259Z,56.43
2022-11-22T15:14:15.172Z,51.40
2022-11-22T15:57:31.742Z,35.07
2022-11-22T16:00:00.309Z,37.50
2022-11-22T16:02:32.265Z,38.10
2022-11-22T16:06:10.537Z,40.83
2022-11-22T16:07:55.124Z,39.23
2022-11-22T16:10:25.556Z,38.37
2022-11-22T16:12:54.887Z,38.13
2022-11-22T16:15:36.598Z,37.77
2022-11-22T16:18:14.624Z,37.20
2022-11-22T16:20:59.684Z,40.50
2022-11-22T16:23:29.278Z,38.43
2022-11-22T16:26:01.648Z,37.67
2022-11-22T16:28:37.646Z,38.73
2022-11-22T16:31:17.389Z,39.50
2022-11-22T16:33:46.367Z,45.47
2022-11-22T16:36:18.147Z,44.20
2022-11-22T16:38:47.162Z,46.53
2022-11-22T16:41:20.783Z,47.20
2022-11-22T16:43:51.694Z,48.20
2022-11-22T16:46:20.353Z,49.43
2022-11-22T16:48:49.788Z,49.07
2022-11-22T16:51:24.315Z,47.27
2022-11-22T16:53:54.754Z,47.23
2022-11-22T16:56:25.000Z,47.07
2022-11-22T16:58:55.543Z,45.90
2022-11-22T17:01:26.753Z,50.27
2022-11-22T17:03:57.985Z,51.03
2022-11-22T17:06:29.303Z,54.17
2022-11-22T17:08:59.359Z,51.93
2022-11-22T17:11:30.957Z,52.70
2022-11-22T17:13:59.669Z,52.27
2022-11-22T17:16:28.162Z,52.73
2022-11-22T17:18:56.518Z,54.13
2022-11-22T17:21:32.948Z,50.47
2022-11-22T17:24:06.763Z,49.17
2022-11-22T17:26:36.006Z,49.47
2022-11-22T17:29:04.593Z,46.37
2022-11-22T17:31:33.101Z,45.10
2022-11-22T17:34:01.753Z,48.30
2022-11-22T17:36:32.972Z,47.63
2022-11-22T17:39:03.255Z,48.20
2022-11-22T17:41:31.952Z,45.53
2022-11-22T17:44:00.647Z,44.27
2022-11-22T17:46:31.838Z,45.00
2022-11-22T17:49:02.295Z,40.47
2022-11-22T17:51:33.079Z,39.57
2022-11-22T17:54:01.527Z,39.53
2022-11-22T17:56:31.016Z,41.47
2022-11-22T17:58:59.418Z,43.10
2022-11-22T18:01:28.170Z,42.53
2022-11-22T18:03:56.553Z,46.03
2022-11-22T18:06:26.640Z,50.83
2022-11-22T18:08:56.761Z,60.10
2022-11-22T18:11:25.210Z,61.43
2022-11-22T18:13:53.819Z,55.30
2022-11-22T18:16:28.436Z,56.80
2022-11-22T18:18:58.471Z,56.47
2022-11-22T18:21:29.558Z,57.13
2022-11-22T18:24:00.156Z,55.73
2022-11-22T18:26:44.967Z,57.40
2022-11-22T18:32:03.696Z,59.23
2022-11-22T18:34:32.092Z,86.63
2022-11-22T18:37:02.955Z,84.60
2022-11-22T18:39:36.571Z,77.80
2022-11-22T18:42:06.249Z,74.13
2022-11-22T18:44:34.663Z,70.83
2022-11-22T18:47:03.326Z,73.07
2022-11-22T18:49:32.383Z,72.10
2022-11-22T18:52:01.409Z,74.37
2022-11-22T18:54:30.069Z,72.73
2022-11-22T18:57:00.232Z,76.53
2022-11-22T18:59:28.577Z,71.63
2022-11-22T19:01:57.141Z,67.80
2022-11-22T19:04:25.511Z,63.00
2022-11-22T19:06:55.611Z,62.70
2022-11-22T19:09:24.033Z,67.27
2022-11-22T19:11:58.230Z,65.30
2022-11-22T19:14:29.866Z,65.87
2022-11-22T19:16:58.638Z,66.63
2022-11-22T19:19:26.991Z,64.10
2022-11-22T19:21:55.614Z,65.87
2022-11-22T19:24:24.011Z,64.50
2022-11-22T19:26:52.413Z,77.97
2022-11-22T19:29:21.430Z,87.70
2022-11-22T19:31:51.475Z,97.67
2022-11-22T19:34:19.921Z,107.27
2022-11-22T19:36:48.312Z,110.27
2022-11-22T19:39:17.448Z,105.87
2022-11-22T19:41:46.223Z,102.57
2022-11-22T19:44:14.614Z,105.23
2022-11-22T19:46:43.106Z,95.77
2022-11-22T19:49:14.641Z,90.43
2022-11-22T19:51:43.005Z,85.50
2022-11-22T19:54:11.454Z,79.33
2022-11-22T19:56:40.352Z,77.37
2022-11-22T19:59:10.539Z,77.37
2022-11-22T20:01:39.996Z,78.20
2022-11-22T20:04:08.802Z,81.17
2022-11-22T20:06:38.638Z,78.97
2022-11-22T20:09:09.397Z,84.47
2022-11-22T20:11:38.658Z,89.30
2022-11-22T20:14:07.410Z,81.13
2022-11-22T20:16:35.814Z,68.53
2022-11-22T20:19:07.063Z,59.87
2022-11-22T20:21:38.070Z,55.87
2022-11-22T20:24:07.947Z,52.70
2022-11-22T20:26:37.150Z,53.67
2022-11-22T20:29:06.980Z,56.63
2022-11-22T20:31:37.509Z,61.27
2022-11-22T20:34:06.339Z,59.50
2022-11-22T20:36:36.409Z,63.43
2022-11-22T20:39:10.650Z,65.27
2022-11-22T20:41:40.130Z,61.03
2022-11-22T20:44:09.007Z,74.33
2022-11-22T20:46:39.466Z,68.53
2022-11-22T20:49:08.286Z,61.07
2022-11-22T20:51:39.899Z,61.27
2022-11-22T20:54:10.820Z,57.13
2022-11-22T20:56:39.828Z,59.30
2022-11-22T20:59:08.354Z,58.93
2022-11-22T21:01:37.192Z,57.87
2022-11-22T21:04:05.714Z,80.50
2022-11-22T21:06:35.312Z,153.03
2022-11-22T21:09:03.735Z,169.93
2022-11-22T21:11:33.854Z,114.60
2022-11-22T21:14:02.401Z,82.37
2022-11-22T21:16:32.053Z,113.03
2022-11-22T21:19:02.330Z,60.20
2022-11-22T21:21:32.024Z,54.70
2022-11-22T21:24:01.839Z,55.53
2022-11-22T21:26:31.366Z,54.13
2022-11-22T21:29:03.519Z,53.63
2022-11-22T21:31:32.614Z,52.83
2022-11-22T21:34:01.126Z,51.20
2022-11-22T21:36:29.564Z,54.53
2022-11-22T21:38:58.620Z,56.00
2022-11-22T21:41:42.557Z,57.53
2022-11-22T21:44:14.162Z,65.30
2022-11-22T21:46:43.993Z,68.30
2022-11-22T21:49:12.335Z,73.60
2022-11-22T21:51:40.725Z,70.83
2022-11-22T21:54:09.272Z,65.17
2022-11-22T21:56:37.675Z,63.03
2022-11-22T21:59:06.446Z,58.60
2022-11-22T22:01:36.598Z,58.60
2022-11-22T22:04:05.302Z,64.57
2022-11-22T22:06:33.766Z,58.83
2022-11-22T22:09:02.930Z,53.63
2022-11-22T22:11:32.152Z,62.80
2022-11-22T22:14:00.696Z,58.60
2022-11-22T22:16:29.124Z,65.00
2022-11-22T22:19:02.591Z,227.77
2022-11-22T22:21:34.036Z,388.97
2022-11-22T22:24:04.010Z,308.13
2022-11-22T22:26:33.291Z,379.43
2022-11-22T22:29:01.665Z,105.50
2022-11-22T22:31:30.099Z,65.07
2022-11-22T22:33:59.901Z,67.50
2022-11-22T22:36:28.845Z,71.63
2022-11-22T22:38:57.453Z,68.70
2022-11-22T22:41:26.399Z,67.33
2022-11-22T22:43:54.801Z,64.67
2022-11-22T22:46:25.217Z,69.43
2022-11-22T22:48:56.346Z,70.93
2022-11-22T22:51:32.385Z,66.63
2022-11-22T22:54:02.361Z,63.10
2022-11-22T22:56:32.506Z,59.20
2022-11-22T22:59:02.357Z,57.83
2022-11-22T23:01:32.509Z,55.80
2022-11-22T23:04:02.013Z,54.27
2022-11-22T23:06:33.677Z,53.93
2022-11-22T23:09:02.776Z,51.43
2022-11-22T23:11:50.473Z,57.53
2022-11-22T23:14:21.137Z,63.50
2022-11-22T23:16:53.200Z,58.23
2022-11-22T23:19:24.872Z,55.47
2022-11-22T23:21:55.070Z,51.03
2022-11-22T23:24:23.620Z,46.73
2022-11-22T23:26:51.990Z,44.33
2022-11-22T23:29:20.459Z,45.53
2022-11-22T23:31:48.896Z,43.67
2022-11-22T23:34:17.470Z,42.80
2022-11-22T23:36:45.997Z,44.10
2022-11-22T23:39:15.808Z,44.80
2022-11-22T23:41:45.249Z,44.43
2022-11-22T23:44:14.034Z,44.17
2022-11-22T23:46:42.400Z,46.77
2022-11-22T23:49:13.269Z,47.73
2022-11-22T23:51:41.804Z,45.43
2022-11-22T23:54:11.730Z,46.87
2022-11-22T23:56:41.615Z,43.77
2022-11-22T23:59:11.714Z,44.80
